createdAt,value
2022-09-01T00:00:07.496Z,82.73
2022-09-01T00:01:07.456Z,82.12
2022-09-01T00:02:07.465Z,82.02
2022-09-01T00:03:07.464Z,82.42
2022-09-01T00:04:07.462Z,82.62
2022-09-01T00:05:07.384Z,82.12
2022-09-01T00:06:07.315Z,82.22
2022-09-01T00:07:07.294Z,82.12
2022-09-01T00:08:07.305Z,82.12
2022-09-01T00:09:07.230Z,82.22
2022-09-01T00:10:07.819Z,82.02
2022-09-01T00:11:07.924Z,82.62
2022-09-01T00:12:07.161Z,82.62
2022-09-01T00:13:07.194Z,82.02
2022-09-01T00:14:07.128Z,82.12
2022-09-01T00:15:07.103Z,83.13
2022-09-01T00:16:07.045Z,82.93
2022-09-01T00:17:07.013Z,81.92
2022-09-01T00:18:06.951Z,82.02
2022-09-01T00:19:06.992Z,82.42
2022-09-01T00:20:08.829Z,82.53
2022-09-01T00:21:07.060Z,82.02
2022-09-01T00:22:06.841Z,82.02
2022-09-01T00:23:06.799Z,82.02
2022-09-01T00:24:06.778Z,82.12
2022-09-01T00:25:06.835Z,82.22
2022-09-01T00:26:06.713Z,82.12
2022-09-01T00:27:06.678Z,82.12
2022-09-01T00:28:06.642Z,82.12
2022-09-01T00:29:06.634Z,82.12
2022-09-01T00:30:06.588Z,82.22
2022-09-01T00:31:06.734Z,82.32
2022-09-01T00:32:06.533Z,82.42
2022-09-01T00:33:06.492Z,82.02
2022-09-01T00:34:06.481Z,83.33
2022-09-01T00:35:06.432Z,82.46
2022-09-01T00:36:07.334Z,83.37
2022-09-01T00:37:06.461Z,82.53
2022-09-01T00:38:06.337Z,81.85
2022-09-01T00:39:06.339Z,82.53
2022-09-01T00:40:06.336Z,82.42
2022-09-01T00:41:06.258Z,83.74
2022-09-01T00:42:06.230Z,82.22
2022-09-01T00:43:06.954Z,82.26
2022-09-01T00:44:06.175Z,82.56
2022-09-01T00:45:06.202Z,82.42
2022-09-01T00:46:06.253Z,83.37
2022-09-01T00:47:06.068Z,82.36
2022-09-01T00:48:06.042Z,83.23
2022-09-01T00:49:06.119Z,82.76
2022-09-01T00:50:05.988Z,83.07
2022-09-01T00:51:05.973Z,82.36
2022-09-01T00:52:05.935Z,82.46
2022-09-01T00:53:05.919Z,82.06
2022-09-01T00:54:05.861Z,82.16
2022-09-01T00:55:06.027Z,82.56
2022-09-01T00:56:05.833Z,82.53
2022-09-01T00:57:05.770Z,83.27
2022-09-01T00:58:05.756Z,82.97
2022-09-01T00:59:05.725Z,82.46
2022-09-01T01:00:06.935Z,82.56
2022-09-01T01:01:05.768Z,83.37
2022-09-01T01:02:05.673Z,82.26
2022-09-01T01:03:05.582Z,82.56
2022-09-01T01:04:06.366Z,83.27
2022-09-01T01:05:05.536Z,83.37
2022-09-01T01:06:05.782Z,83.07
2022-09-01T01:07:05.475Z,82.46
2022-09-01T01:08:05.440Z,82.46
2022-09-01T01:09:05.416Z,82.26
2022-09-01T01:10:05.378Z,82.87
2022-09-01T01:11:05.427Z,83.27
2022-09-01T01:12:05.379Z,82.46
2022-09-01T01:13:05.284Z,82.60
2022-09-01T01:14:05.262Z,82.20
2022-09-01T01:15:05.245Z,82.40
2022-09-01T01:16:05.246Z,82.46
2022-09-01T01:17:05.283Z,82.60
2022-09-01T01:18:05.158Z,82.20
2022-09-01T01:19:05.101Z,82.50
2022-09-01T01:20:05.109Z,83.31
2022-09-01T01:21:05.044Z,83.01
2022-09-01T01:22:05.098Z,82.20
2022-09-01T01:23:05.049Z,82.20
2022-09-01T01:24:04.951Z,82.20
2022-09-01T01:25:04.954Z,82.40
2022-09-01T01:26:04.896Z,82.50
2022-09-01T01:27:04.882Z,82.20
2022-09-01T01:28:04.910Z,81.99
2022-09-01T01:29:04.824Z,82.40
2022-09-01T01:30:04.800Z,82.20
2022-09-01T01:31:04.878Z,82.50
2022-09-01T01:32:04.734Z,82.30
2022-09-01T01:33:04.764Z,81.99
2022-09-01T01:34:04.652Z,82.10
2022-09-01T01:35:05.345Z,82.20
2022-09-01T01:36:04.609Z,82.10
2022-09-01T01:37:04.560Z,82.30
2022-09-01T01:38:05.457Z,82.24
2022-09-01T01:39:04.594Z,82.34
2022-09-01T01:40:04.548Z,81.79
2022-09-01T01:41:04.457Z,81.93
2022-09-01T01:42:04.414Z,82.10
2022-09-01T01:43:04.391Z,82.14
2022-09-01T01:44:04.414Z,81.83
2022-09-01T01:45:04.402Z,81.99
2022-09-01T01:46:04.326Z,82.20
2022-09-01T01:47:04.262Z,81.52
2022-09-01T01:48:04.383Z,81.83
2022-09-01T01:49:04.208Z,81.63
2022-09-01T01:50:04.247Z,82.03
2022-09-01T01:51:04.146Z,81.73
2022-09-01T01:52:04.186Z,82.14
2022-09-01T01:53:04.108Z,81.52
2022-09-01T01:54:04.052Z,81.83
2022-09-01T01:55:05.335Z,81.83
2022-09-01T01:56:04.076Z,81.83
2022-09-01T01:57:03.960Z,81.93
2022-09-01T01:58:04.895Z,81.83
2022-09-01T01:59:03.923Z,81.73
2022-09-01T02:00:03.887Z,82.44
2022-09-01T02:01:03.912Z,82.03
2022-09-01T02:02:04.164Z,82.54
2022-09-01T02:03:03.904Z,82.34
2022-09-01T02:04:03.759Z,82.54
2022-09-01T02:05:03.709Z,82.44
2022-09-01T02:06:03.698Z,83.04
2022-09-01T02:07:03.719Z,83.49
2022-09-01T02:08:03.671Z,83.29
2022-09-01T02:09:03.597Z,83.39
2022-09-01T02:10:03.576Z,83.29
2022-09-01T02:11:03.534Z,83.09
2022-09-01T02:12:03.515Z,82.75
2022-09-01T02:13:03.541Z,82.64
2022-09-01T02:14:03.435Z,83.18
2022-09-01T02:15:03.407Z,83.09
2022-09-01T02:16:03.372Z,83.65
2022-09-01T02:17:03.373Z,83.18
2022-09-01T02:18:05.162Z,83.29
2022-09-01T02:19:03.356Z,83.09
2022-09-01T02:20:03.274Z,83.90
2022-09-01T02:21:03.220Z,83.29
2022-09-01T02:22:03.191Z,83.18
2022-09-01T02:23:03.227Z,82.98
2022-09-01T02:24:03.157Z,83.39
2022-09-01T02:25:03.165Z,83.18
2022-09-01T02:26:16.056Z,83.09
2022-09-01T02:27:03.037Z,83.69
2022-09-01T02:28:03.017Z,83.69
2022-09-01T02:29:03.051Z,83.39
2022-09-01T02:30:02.961Z,83.80
2022-09-01T02:31:02.954Z,83.90
2022-09-01T02:32:02.938Z,83.69
2022-09-01T02:33:02.870Z,83.59
2022-09-01T02:34:02.829Z,83.29
2022-09-01T02:35:02.862Z,83.90
2022-09-01T02:36:02.767Z,83.69
2022-09-01T02:37:02.732Z,83.69
2022-09-01T02:38:02.713Z,83.80
2022-09-01T02:39:02.678Z,83.59
2022-09-01T02:40:02.855Z,83.59
2022-09-01T02:41:02.615Z,83.49
2022-09-01T02:42:02.582Z,83.59
2022-09-01T02:43:02.551Z,83.69
2022-09-01T02:44:02.661Z,83.59
2022-09-01T02:45:02.638Z,83.90
2022-09-01T02:46:02.593Z,83.90
2022-09-01T02:47:02.426Z,83.90
2022-09-01T02:48:02.418Z,83.90
2022-09-01T02:49:02.377Z,84.04
2022-09-01T02:50:02.348Z,84.30
2022-09-01T02:51:02.360Z,84.34
2022-09-01T02:52:02.275Z,84.64
2022-09-01T02:53:04.020Z,84.75
2022-09-01T02:54:02.235Z,84.44
2022-09-01T02:55:02.182Z,85.11
2022-09-01T02:56:02.270Z,84.95
2022-09-01T02:57:02.127Z,85.21
2022-09-01T02:58:02.097Z,85.05
2022-09-01T02:59:02.067Z,85.15
2022-09-01T03:00:02.033Z,85.05
2022-09-01T03:01:02.079Z,85.15
2022-09-01T03:02:02.080Z,84.85
2022-09-01T03:03:01.947Z,85.46
2022-09-01T03:04:01.915Z,85.96
2022-09-01T03:05:01.971Z,85.56
2022-09-01T03:06:01.856Z,85.46
2022-09-01T03:07:01.816Z,85.86
2022-09-01T03:08:01.858Z,85.76
2022-09-01T03:09:01.761Z,85.36
2022-09-01T03:10:01.737Z,85.96
2022-09-01T03:11:01.695Z,85.96
2022-09-01T03:12:01.747Z,86.16
2022-09-01T03:13:01.673Z,86.16
2022-09-01T03:14:01.597Z,85.76
2022-09-01T03:15:01.594Z,85.86
2022-09-01T03:16:01.537Z,86.31
2022-09-01T03:17:01.571Z,86.47
2022-09-01T03:18:01.606Z,86.57
2022-09-01T03:19:01.458Z,86.77
2022-09-01T03:20:01.422Z,86.88
2022-09-01T03:21:01.385Z,86.37
2022-09-01T03:22:01.351Z,86.82
2022-09-01T03:23:01.333Z,87.08
2022-09-01T03:24:01.364Z,87.22
2022-09-01T03:25:01.276Z,87.12
2022-09-01T03:26:01.226Z,87.32
2022-09-01T03:27:01.210Z,87.22
2022-09-01T03:28:03.074Z,87.87
2022-09-01T03:29:01.216Z,87.52
2022-09-01T03:30:01.106Z,88.44
2022-09-01T03:31:01.070Z,88.23
2022-09-01T03:32:01.108Z,88.38
2022-09-01T03:33:01.017Z,88.18
2022-09-01T03:34:01.079Z,88.78
2022-09-01T03:35:00.962Z,88.78
2022-09-01T03:36:00.946Z,88.89
2022-09-01T03:37:00.896Z,88.68
2022-09-01T03:38:00.870Z,89.39
2022-09-01T03:39:00.917Z,88.99
2022-09-01T03:40:00.793Z,89.50
2022-09-01T03:41:00.769Z,89.74
2022-09-01T03:42:00.743Z,89.54
2022-09-01T03:43:00.713Z,90.05
2022-09-01T03:44:00.681Z,90.25
2022-09-01T03:45:00.730Z,90.55
2022-09-01T03:46:00.774Z,90.14
2022-09-01T03:47:00.621Z,90.29
2022-09-01T03:48:00.543Z,90.59
2022-09-01T03:49:00.521Z,90.59
2022-09-01T03:50:00.593Z,91.00
2022-09-01T03:51:00.509Z,91.05
2022-09-01T03:52:01.387Z,90.94
2022-09-01T03:53:00.425Z,91.25
2022-09-01T03:54:00.375Z,91.55
2022-09-01T03:55:00.396Z,91.25
2022-09-01T03:56:00.307Z,91.96
2022-09-01T03:57:00.314Z,92.06
2022-09-01T03:58:00.264Z,92.21
2022-09-01T03:59:00.233Z,92.30
2022-09-01T04:00:00.175Z,92.71
2022-09-01T04:01:00.236Z,92.82
2022-09-01T04:02:00.320Z,93.43
2022-09-01T04:03:00.076Z,93.06
2022-09-01T04:04:00.044Z,93.57
2022-09-01T04:05:00.079Z,94.08
2022-09-01T04:05:59.980Z,93.98
2022-09-01T04:06:59.971Z,93.87
2022-09-01T04:07:59.928Z,94.59
2022-09-01T04:08:59.887Z,94.59
2022-09-01T04:09:59.926Z,93.57
2022-09-01T04:10:59.842Z,94.18
2022-09-01T04:11:59.802Z,95.04
2022-09-01T04:12:59.762Z,94.63
2022-09-01T04:13:59.760Z,94.93
2022-09-01T04:14:59.745Z,94.59
2022-09-01T04:15:59.808Z,95.00
2022-09-01T04:16:59.641Z,95.65
2022-09-01T04:17:59.620Z,95.54
2022-09-01T04:18:59.567Z,95.24
2022-09-01T04:19:59.619Z,95.45
2022-09-01T04:20:59.598Z,95.34
2022-09-01T04:21:59.486Z,95.24
2022-09-01T04:22:59.469Z,95.04
2022-09-01T04:23:59.419Z,95.65
2022-09-01T04:24:59.385Z,95.65
2022-09-01T04:25:59.579Z,95.65
2022-09-01T04:26:59.320Z,95.85
2022-09-01T04:27:59.292Z,96.51
2022-09-01T04:28:59.265Z,96.06
2022-09-01T04:29:59.221Z,96.51
2022-09-01T04:30:59.251Z,96.71
2022-09-01T04:31:59.956Z,96.81
2022-09-01T04:32:59.260Z,96.81
2022-09-01T04:33:59.101Z,96.06
2022-09-01T04:34:59.074Z,96.51
2022-09-01T04:35:59.042Z,96.56
2022-09-01T04:36:59.007Z,96.71
2022-09-01T04:37:59.057Z,96.92
2022-09-01T04:38:58.953Z,96.61
2022-09-01T04:39:58.914Z,96.61
2022-09-01T04:40:58.898Z,96.81
2022-09-01T04:41:58.840Z,96.61
2022-09-01T04:42:58.885Z,96.81
2022-09-01T04:43:58.796Z,96.61
2022-09-01T04:44:58.782Z,96.71
2022-09-01T04:45:58.786Z,96.77
2022-09-01T04:46:58.693Z,97.02
2022-09-01T04:47:58.707Z,97.32
2022-09-01T04:48:58.622Z,97.02
2022-09-01T04:49:58.587Z,97.42
2022-09-01T04:50:58.580Z,97.63
2022-09-01T04:51:58.580Z,97.12
2022-09-01T04:52:58.563Z,96.92
2022-09-01T04:53:58.470Z,97.22
2022-09-01T04:54:58.425Z,97.42
2022-09-01T04:55:58.420Z,97.32
2022-09-01T04:56:58.417Z,97.22
2022-09-01T04:57:58.485Z,97.63
2022-09-01T04:58:58.299Z,97.42
2022-09-01T04:59:58.285Z,97.32
2022-09-01T05:00:58.277Z,97.22
2022-09-01T05:01:58.219Z,97.32
2022-09-01T05:02:58.183Z,97.42
2022-09-01T05:03:58.211Z,97.02
2022-09-01T05:04:58.280Z,97.53
2022-09-01T05:05:58.080Z,97.32
2022-09-01T05:06:58.040Z,97.32
2022-09-01T05:07:58.044Z,97.22
2022-09-01T05:08:57.992Z,97.53
2022-09-01T05:10:01.110Z,97.12
2022-09-01T05:10:57.958Z,97.63
2022-09-01T05:11:57.886Z,97.38
2022-09-01T05:12:57.861Z,97.07
2022-09-01T05:13:57.981Z,96.97
2022-09-01T05:14:57.783Z,97.17
2022-09-01T05:15:58.632Z,96.87
2022-09-01T05:16:57.773Z,96.67
2022-09-01T05:17:57.699Z,96.77
2022-09-01T05:18:57.723Z,96.77
2022-09-01T05:19:57.632Z,96.67
2022-09-01T05:20:57.665Z,96.77
2022-09-01T05:21:57.702Z,96.56
2022-09-01T05:22:57.532Z,96.67
2022-09-01T05:23:57.506Z,96.67
2022-09-01T05:24:57.470Z,96.31
2022-09-01T05:25:57.451Z,96.42
2022-09-01T05:26:57.409Z,96.15
2022-09-01T05:27:57.481Z,96.11
2022-09-01T05:28:57.351Z,96.01
2022-09-01T05:29:57.326Z,96.31
2022-09-01T05:30:57.280Z,96.31
2022-09-01T05:31:57.295Z,96.11
2022-09-01T05:32:57.241Z,96.01
2022-09-01T05:33:57.278Z,96.11
2022-09-01T05:34:57.157Z,96.31
2022-09-01T05:35:57.185Z,96.46
2022-09-01T05:36:57.108Z,96.31
2022-09-01T05:37:57.084Z,96.22
2022-09-01T05:38:57.030Z,96.58
2022-09-01T05:39:57.058Z,95.91
2022-09-01T05:40:57.010Z,95.40
2022-09-01T05:41:56.954Z,95.36
2022-09-01T05:42:56.900Z,95.25
2022-09-01T05:44:00.626Z,95.46
2022-09-01T05:44:56.853Z,95.36
2022-09-01T05:46:06.539Z,94.95
2022-09-01T05:46:56.848Z,94.90
2022-09-01T05:47:56.751Z,94.13
2022-09-01T05:48:56.761Z,94.29
2022-09-01T05:49:56.676Z,93.79
2022-09-01T05:50:56.648Z,93.89
2022-09-01T05:51:56.662Z,94.20
2022-09-01T05:52:56.583Z,93.99
2022-09-01T05:53:56.557Z,93.89
2022-09-01T05:54:56.535Z,94.20
2022-09-01T05:55:56.489Z,93.68
2022-09-01T05:56:56.508Z,93.79
2022-09-01T05:57:56.420Z,93.28
2022-09-01T05:59:56.365Z,93.13
2022-09-01T06:00:56.337Z,93.28
2022-09-01T06:01:56.533Z,93.03
2022-09-01T06:02:56.344Z,92.83
2022-09-01T06:03:56.233Z,92.77
2022-09-01T06:04:56.208Z,92.52
2022-09-01T06:05:56.186Z,92.83
2022-09-01T06:07:11.123Z,92.63
2022-09-01T06:07:56.110Z,92.42
2022-09-01T06:08:56.076Z,92.32
2022-09-01T06:09:56.058Z,91.82
2022-09-01T06:10:56.008Z,91.51
2022-09-01T06:11:55.987Z,91.56
2022-09-01T06:12:56.086Z,92.07
2022-09-01T06:13:55.922Z,91.30
2022-09-01T06:14:55.897Z,91.36
2022-09-01T06:15:55.887Z,91.36
2022-09-01T06:16:55.826Z,91.16
2022-09-01T06:17:55.789Z,90.86
2022-09-01T06:18:55.813Z,90.75
2022-09-01T06:19:55.807Z,90.66
2022-09-01T06:20:55.694Z,90.71
2022-09-01T06:21:55.663Z,90.61
2022-09-01T06:22:55.633Z,90.41
2022-09-01T06:23:55.604Z,90.61
2022-09-01T06:25:01.047Z,90.11
2022-09-01T06:25:55.539Z,90.11
2022-09-01T06:26:55.511Z,90.31
2022-09-01T06:27:55.478Z,90.16
2022-09-01T06:28:55.447Z,90.16
2022-09-01T06:29:55.523Z,89.65
2022-09-01T06:30:55.390Z,89.35
2022-09-01T06:31:55.351Z,89.35
2022-09-01T06:32:55.319Z,89.01
2022-09-01T06:33:55.288Z,88.90
2022-09-01T06:34:55.260Z,89.31
2022-09-01T06:35:55.282Z,89.41
2022-09-01T06:36:55.193Z,88.60
2022-09-01T06:37:55.161Z,87.99
2022-09-01T06:38:55.131Z,87.99
2022-09-01T06:39:55.106Z,89.17
2022-09-01T06:40:55.286Z,88.09
2022-09-01T06:41:55.037Z,88.09
2022-09-01T06:42:55.012Z,87.85
2022-09-01T06:43:54.989Z,88.05
2022-09-01T06:44:54.947Z,87.85
2022-09-01T06:45:55.235Z,87.45
2022-09-01T06:46:55.012Z,87.24
2022-09-01T06:47:59.352Z,86.90
2022-09-01T06:48:54.825Z,86.83
2022-09-01T06:49:57.970Z,86.79
2022-09-01T06:51:54.779Z,86.59
2022-09-01T06:53:54.670Z,86.49
2022-09-01T06:54:55.100Z,85.84
2022-09-01T06:55:54.607Z,85.88
2022-09-01T06:56:54.621Z,86.35
2022-09-01T06:58:12.972Z,85.94
2022-09-01T06:58:54.515Z,85.03
2022-09-01T06:59:54.492Z,85.44
2022-09-01T07:00:54.453Z,85.44
2022-09-01T07:02:01.399Z,85.50
2022-09-01T07:02:54.405Z,84.89
2022-09-01T07:03:54.366Z,84.99
2022-09-01T07:04:54.335Z,84.39
2022-09-01T07:06:02.376Z,84.28
2022-09-01T07:07:53.529Z,84.28
2022-09-01T07:08:05.078Z,83.84
2022-09-01T07:12:25.294Z,83.33
2022-09-01T07:13:09.582Z,82.12
2022-09-01T07:17:22.910Z,81.88
2022-09-01T07:17:54.002Z,81.88
2022-09-01T07:18:59.292Z,82.18
2022-09-01T07:19:53.870Z,81.27
2022-09-01T07:21:36.251Z,81.27
2022-09-01T07:22:09.693Z,81.64
2022-09-01T07:23:09.227Z,81.34
2022-09-01T07:24:11.119Z,80.83
2022-09-01T07:25:11.899Z,80.63
2022-09-01T07:26:02.550Z,80.43
2022-09-01T07:26:53.658Z,80.83
2022-09-01T07:27:53.634Z,79.62
2022-09-01T07:29:00.944Z,79.41
2022-09-01T07:29:53.566Z,79.28
2022-09-01T07:30:53.553Z,79.28
2022-09-01T07:32:44.025Z,79.68
2022-09-01T07:32:53.890Z,79.08
2022-09-01T07:33:54.465Z,79.48
2022-09-01T07:34:54.550Z,78.88
2022-09-01T07:39:55.055Z,78.67
2022-09-01T07:42:31.940Z,83.33
2022-09-01T07:43:08.496Z,78.23
2022-09-01T07:43:53.159Z,77.62
2022-09-01T07:44:53.224Z,77.83
2022-09-01T07:46:00.779Z,77.53
2022-09-01T07:47:19.432Z,77.42
2022-09-01T07:47:53.511Z,77.08
2022-09-01T07:50:13.019Z,76.98
2022-09-01T07:51:52.960Z,76.95
2022-09-01T07:52:52.887Z,76.48
2022-09-01T07:53:52.857Z,76.18
2022-09-01T07:54:52.817Z,75.98
2022-09-01T07:55:52.833Z,75.84
2022-09-01T07:56:52.757Z,75.37
2022-09-01T07:57:52.726Z,75.43
2022-09-01T07:58:52.691Z,75.84
2022-09-01T07:59:52.664Z,75.34
2022-09-01T08:00:52.886Z,75.03
2022-09-01T08:01:52.642Z,74.73
2022-09-01T08:02:56.999Z,73.92
2022-09-01T08:03:52.543Z,73.82
2022-09-01T08:04:52.516Z,75.03
2022-09-01T08:05:52.486Z,73.79
2022-09-01T08:06:52.506Z,73.88
2022-09-01T08:07:52.512Z,73.58
2022-09-01T08:08:56.887Z,73.88
2022-09-01T08:09:56.075Z,73.99
2022-09-01T08:10:52.334Z,74.69
2022-09-01T08:12:01.636Z,73.18
2022-09-01T08:12:59.496Z,73.48
2022-09-01T08:13:52.501Z,72.98
2022-09-01T08:15:12.688Z,73.68
2022-09-01T08:16:08.836Z,73.08
2022-09-01T08:16:52.982Z,73.08
2022-09-01T08:17:52.322Z,72.98
2022-09-01T08:18:52.174Z,71.26
2022-09-01T08:19:52.854Z,71.67
2022-09-01T08:20:52.041Z,71.26
2022-09-01T08:21:52.059Z,71.87
2022-09-01T08:22:51.983Z,70.83
2022-09-01T08:23:51.955Z,69.82
2022-09-01T08:24:51.955Z,70.53
2022-09-01T08:25:51.893Z,70.83
2022-09-01T08:26:51.960Z,71.03
2022-09-01T08:27:59.835Z,70.86
2022-09-01T08:28:55.413Z,69.55
2022-09-01T08:29:51.774Z,69.55
2022-09-01T08:30:52.514Z,70.22
2022-09-01T08:31:51.741Z,70.83
2022-09-01T08:32:52.149Z,71.44
2022-09-01T08:33:51.654Z,70.53
2022-09-01T08:34:51.629Z,69.42
2022-09-01T08:35:51.604Z,69.52
2022-09-01T08:36:51.571Z,68.98
2022-09-01T08:37:51.603Z,68.21
2022-09-01T08:38:51.573Z,69.18
2022-09-01T08:39:51.486Z,69.18
2022-09-01T08:40:54.814Z,68.61
2022-09-01T08:41:51.423Z,68.58
2022-09-01T08:42:51.871Z,68.48
2022-09-01T08:43:51.367Z,68.68
2022-09-01T08:44:51.335Z,68.98
2022-09-01T08:45:51.304Z,68.28
2022-09-01T08:46:51.412Z,68.28
2022-09-01T08:48:28.734Z,68.68
2022-09-01T08:49:51.198Z,68.48
2022-09-01T08:50:52.883Z,68.44
2022-09-01T08:51:51.130Z,66.43
2022-09-01T08:52:53.006Z,64.82
2022-09-01T08:53:51.128Z,66.33
2022-09-01T08:54:51.043Z,67.64
2022-09-01T08:55:51.011Z,66.80
2022-09-01T08:56:50.989Z,65.12
2022-09-01T08:57:57.137Z,64.92
2022-09-01T08:58:51.465Z,66.33
2022-09-01T08:59:50.897Z,66.53
2022-09-01T09:00:54.887Z,66.80
2022-09-01T09:01:50.871Z,67.03
2022-09-01T09:02:50.843Z,67.21
2022-09-01T09:03:51.603Z,66.80
2022-09-01T09:04:50.824Z,66.10
2022-09-01T09:05:50.722Z,66.00
2022-09-01T09:06:50.691Z,65.19
2022-09-01T09:07:50.670Z,64.59
2022-09-01T09:08:51.492Z,64.29
2022-09-01T09:09:54.035Z,64.39
2022-09-01T09:10:50.609Z,61.77
2022-09-01T09:11:50.547Z,63.89
2022-09-01T09:12:50.519Z,64.69
2022-09-01T09:13:50.504Z,64.89
2022-09-01T09:14:50.466Z,64.99
2022-09-01T09:15:50.559Z,62.18
2022-09-01T09:16:51.559Z,62.98
2022-09-01T09:17:53.292Z,62.88
2022-09-01T09:18:57.509Z,63.05
2022-09-01T09:19:50.329Z,61.34
2022-09-01T09:20:50.348Z,61.14
2022-09-01T09:21:50.261Z,62.05
2022-09-01T09:22:50.284Z,62.15
2022-09-01T09:23:50.205Z,62.45
2022-09-01T09:24:50.232Z,60.24
2022-09-01T09:25:50.342Z,61.24
2022-09-01T09:26:50.171Z,62.32
2022-09-01T09:28:00.096Z,62.92
2022-09-01T09:28:50.070Z,61.51
2022-09-01T09:29:50.028Z,61.44
2022-09-01T09:30:50.130Z,62.12
2022-09-01T09:31:50.695Z,63.02
2022-09-01T09:33:52.651Z,61.51
2022-09-01T09:34:49.895Z,61.51
2022-09-01T09:35:49.872Z,61.79
2022-09-01T09:36:54.680Z,62.29
2022-09-01T09:37:49.802Z,61.38
2022-09-01T09:38:50.502Z,61.66
2022-09-01T09:39:49.750Z,60.58
2022-09-01T09:41:13.890Z,61.05
2022-09-01T09:41:50.642Z,59.75
2022-09-01T09:42:49.660Z,58.75
2022-09-01T09:43:49.629Z,59.22
2022-09-01T09:44:49.701Z,59.12
2022-09-01T09:45:49.634Z,59.12
2022-09-01T09:46:50.554Z,57.54
2022-09-01T09:47:49.648Z,58.34
2022-09-01T09:48:50.610Z,59.25
2022-09-01T09:49:49.465Z,60.02
2022-09-01T09:50:50.136Z,60.22
2022-09-01T09:51:49.425Z,60.42
2022-09-01T09:52:49.583Z,59.72
2022-09-01T09:53:49.342Z,60.02
2022-09-01T09:54:49.462Z,59.22
2022-09-01T09:55:51.723Z,59.34
2022-09-01T09:56:49.277Z,59.85
2022-09-01T09:57:49.278Z,59.22
2022-09-01T09:58:49.688Z,59.34
2022-09-01T10:00:01.837Z,59.42
2022-09-01T10:00:49.161Z,59.62
2022-09-01T10:01:49.214Z,58.72
2022-09-01T10:02:50.509Z,58.59
2022-09-01T10:03:49.133Z,59.39
2022-09-01T10:04:52.645Z,59.79
2022-09-01T10:05:49.089Z,58.96
2022-09-01T10:06:48.989Z,58.29
2022-09-01T10:07:48.981Z,58.69
2022-09-01T10:08:48.933Z,59.66
2022-09-01T10:09:48.907Z,59.36
2022-09-01T10:10:57.887Z,59.06
2022-09-01T10:11:48.836Z,59.26
2022-09-01T10:12:48.818Z,58.59
2022-09-01T10:13:48.800Z,58.89
2022-09-01T10:14:52.611Z,59.29
2022-09-01T10:15:51.018Z,59.26
2022-09-01T10:18:32.097Z,58.96
2022-09-01T10:19:20.781Z,58.16
2022-09-01T10:20:20.733Z,60.27
2022-09-01T10:21:20.698Z,58.46
2022-09-01T10:22:28.685Z,58.46
2022-09-01T10:23:23.284Z,59.06
2022-09-01T10:24:21.436Z,58.46
2022-09-01T10:25:20.625Z,58.96
2022-09-01T10:26:20.570Z,59.16
2022-09-01T10:27:20.538Z,59.06
2022-09-01T10:28:22.865Z,58.16
2022-09-01T10:29:21.285Z,58.36
2022-09-01T10:30:20.834Z,58.66
2022-09-01T10:31:29.391Z,59.16
2022-09-01T10:32:34.957Z,59.77
2022-09-01T10:33:22.047Z,59.74
2022-09-01T10:34:21.230Z,59.53
2022-09-01T10:35:20.317Z,59.64
2022-09-01T10:36:24.321Z,59.31
2022-09-01T10:37:20.249Z,59.00
2022-09-01T10:38:20.311Z,59.20
2022-09-01T10:39:27.622Z,58.66
2022-09-01T10:40:25.604Z,59.03
2022-09-01T10:41:20.235Z,58.94
2022-09-01T10:42:20.181Z,58.91
2022-09-01T10:43:20.088Z,59.20
2022-09-01T10:44:20.085Z,59.81
2022-09-01T10:45:20.038Z,59.20
2022-09-01T10:47:20.031Z,58.35
2022-09-01T10:48:30.273Z,58.05
2022-09-01T10:49:25.066Z,57.05
2022-09-01T10:50:19.916Z,57.35
2022-09-01T10:51:21.104Z,57.95
2022-09-01T10:52:28.444Z,57.15
2022-09-01T10:53:20.491Z,57.35
2022-09-01T10:54:19.799Z,58.25
2022-09-01T10:55:24.711Z,58.15
2022-09-01T10:56:28.087Z,57.65
2022-09-01T10:59:56.391Z,59.08
2022-09-01T11:01:51.690Z,58.35
2022-09-01T11:02:51.270Z,58.95
2022-09-01T11:03:51.851Z,58.98
2022-09-01T11:04:54.190Z,59.28
2022-09-01T11:05:52.733Z,58.91
2022-09-01T11:08:01.212Z,58.98
2022-09-01T11:08:51.285Z,58.18
2022-09-01T11:09:57.232Z,58.35
2022-09-01T11:10:55.232Z,57.09
2022-09-01T11:11:50.979Z,57.79
2022-09-01T11:13:02.519Z,57.07
2022-09-01T11:13:50.935Z,56.94
2022-09-01T11:14:50.908Z,56.14
2022-09-01T11:15:50.877Z,56.41
2022-09-01T11:16:50.930Z,55.32
2022-09-01T11:17:50.829Z,56.24
2022-09-01T11:18:50.956Z,56.57
2022-09-01T11:19:50.775Z,57.37
2022-09-01T11:20:50.771Z,56.37
2022-09-01T11:21:50.738Z,57.17
2022-09-01T11:22:51.067Z,55.87
2022-09-01T11:23:50.673Z,55.19
2022-09-01T11:24:58.120Z,55.32
2022-09-01T11:26:19.135Z,56.22
2022-09-01T11:26:50.609Z,57.42
2022-09-01T11:27:50.583Z,56.92
2022-09-01T11:28:50.551Z,57.12
2022-09-01T11:29:51.932Z,57.02
2022-09-01T11:30:50.498Z,57.02
2022-09-01T11:31:50.565Z,58.12
2022-09-01T11:32:50.452Z,56.37
2022-09-01T11:33:50.414Z,55.36
2022-09-01T11:34:50.406Z,55.74
2022-09-01T11:35:50.599Z,54.61
2022-09-01T11:36:50.336Z,54.71
2022-09-01T11:37:50.349Z,55.19
2022-09-01T11:38:50.291Z,55.29
2022-09-01T11:39:50.264Z,55.56
2022-09-01T11:40:50.285Z,54.86
2022-09-01T11:41:54.486Z,55.13
2022-09-01T11:42:50.186Z,54.91
2022-09-01T11:43:50.167Z,52.99
2022-09-01T11:44:50.140Z,53.39
2022-09-01T11:45:50.234Z,52.19
2022-09-01T11:46:50.099Z,52.62
2022-09-01T11:47:50.242Z,52.02
2022-09-01T11:48:52.062Z,52.02
2022-09-01T11:49:50.011Z,52.55
2022-09-01T11:50:50.019Z,53.09
2022-09-01T11:51:49.956Z,53.39
2022-09-01T11:52:49.941Z,52.99
2022-09-01T11:53:50.009Z,52.29
2022-09-01T11:54:49.886Z,52.87
2022-09-01T11:55:49.874Z,51.27
2022-09-01T11:56:49.834Z,51.77
2022-09-01T11:57:49.811Z,52.14
2022-09-01T11:58:49.788Z,53.04
2022-09-01T11:59:50.044Z,51.15
2022-09-01T12:00:49.737Z,52.17
2022-09-01T12:01:49.790Z,52.47
2022-09-01T12:02:49.774Z,51.17
2022-09-01T12:03:49.664Z,52.69
2022-09-01T12:04:49.637Z,53.31
2022-09-01T12:05:51.315Z,54.02
2022-09-01T12:06:50.678Z,53.59
2022-09-01T12:07:49.569Z,53.29
2022-09-01T12:08:49.544Z,53.72
2022-09-01T12:09:49.537Z,53.31
2022-09-01T12:10:49.541Z,53.42
2022-09-01T12:11:49.526Z,53.22
2022-09-01T12:12:49.504Z,53.19
2022-09-01T12:13:49.426Z,53.59
2022-09-01T12:15:05.238Z,52.69
2022-09-01T12:16:14.208Z,53.19
2022-09-01T12:16:49.389Z,53.09
2022-09-01T12:17:49.636Z,52.76
2022-09-01T12:18:49.302Z,52.74
2022-09-01T12:19:49.274Z,51.65
2022-09-01T12:21:50.977Z,50.87
2022-09-01T12:22:49.204Z,52.09
2022-09-01T12:23:49.228Z,51.37
2022-09-01T12:24:49.156Z,51.47
2022-09-01T12:25:49.134Z,52.37
2022-09-01T12:26:49.162Z,52.07
2022-09-01T12:27:49.086Z,50.47
2022-09-01T12:28:49.307Z,51.17
2022-09-01T12:29:49.033Z,52.07
2022-09-01T12:30:49.013Z,51.07
2022-09-01T12:31:49.002Z,51.35
2022-09-01T12:32:48.973Z,51.45
2022-09-01T12:33:49.015Z,51.03
2022-09-01T12:34:48.997Z,50.40
2022-09-01T12:35:48.893Z,51.10
2022-09-01T12:36:48.872Z,50.38
2022-09-01T12:37:48.850Z,49.98
2022-09-01T12:38:48.817Z,50.40
2022-09-01T12:39:48.793Z,50.45
2022-09-01T12:40:49.858Z,50.30
2022-09-01T12:41:48.756Z,51.57
2022-09-01T12:42:48.755Z,51.10
2022-09-01T12:43:52.017Z,51.70
2022-09-01T12:44:49.164Z,51.97
2022-09-01T12:45:48.711Z,51.62
2022-09-01T12:46:48.707Z,50.90
2022-09-01T12:47:50.329Z,50.90
2022-09-01T12:48:49.585Z,49.10
2022-09-01T12:49:52.027Z,49.70
2022-09-01T12:50:48.534Z,49.51
2022-09-01T12:51:48.560Z,49.53
2022-09-01T12:52:48.553Z,49.73
2022-09-01T12:53:48.464Z,50.13
2022-09-01T12:54:48.441Z,51.25
2022-09-01T12:55:48.532Z,52.34
2022-09-01T12:56:48.400Z,53.56
2022-09-01T12:57:48.458Z,54.69
2022-09-01T12:58:48.354Z,56.04
2022-09-01T12:59:48.483Z,55.11
2022-09-01T13:00:48.319Z,55.74
2022-09-01T13:01:48.406Z,56.14
2022-09-01T13:02:48.514Z,56.94
2022-09-01T13:03:48.227Z,56.04
2022-09-01T13:04:48.217Z,57.14
2022-09-01T13:05:48.172Z,57.17
2022-09-01T13:06:48.636Z,57.67
2022-09-01T13:07:48.127Z,56.67
2022-09-01T13:08:48.214Z,57.29
2022-09-01T13:09:48.080Z,56.99
2022-09-01T13:10:48.055Z,57.50
2022-09-01T13:12:48.010Z,57.39
2022-09-01T13:13:47.988Z,55.87
2022-09-01T13:14:48.157Z,56.87
2022-09-01T13:15:47.937Z,56.14
2022-09-01T13:16:47.948Z,55.94
2022-09-01T13:17:47.894Z,55.29
2022-09-01T13:19:47.833Z,54.76